Time;durP1;ratioP1;P1;durP2;ratioP2;P2;SDS_P1;SDS_P2;PMS_P1;PMS_P2;Temp;Humidity;BMP_temperature;BMP_pressure;BME280_temperature;BME280_humidity;BME280_pressure;Samples;Min_cycle;Max_cycle;Signal;HPM_P1;HPM_P2
2022/01/04 00:00:05;;;;;;;2.55;1.13;;;18.20;87.20;;;;;;10445317;28;20084;-75
2022/01/04 00:05:07;;;;;;;2.85;1.20;;;18.10;87.10;;;;;;10456339;28;20049;-75
2022/01/04 00:10:09;;;;;;;2.72;1.27;;;18.10;87.20;;;;;;10455778;28;20052;-75
2022/01/04 00:15:10;;;;;;;1.98;1.20;;;18.10;87.30;;;;;;10450562;28;20095;-76
2022/01/04 00:20:12;;;;;;;2.58;1.20;;;18.00;87.30;;;;;;10456164;28;20053;-75
2022/01/04 00:25:15;;;;;;;2.90;1.35;;;18.00;87.40;;;;;;10456298;28;20052;-75
2022/01/04 00:30:16;;;;;;;3.17;1.13;;;17.90;87.40;;;;;;10437123;28;20049;-75
2022/01/04 00:35:18;;;;;;;2.40;1.20;;;17.90;87.50;;;;;;10454834;28;20106;-75
2022/01/04 00:40:19;;;;;;;3.25;1.45;;;17.80;87.50;;;;;;10454567;28;20409;-75
2022/01/04 00:45:21;;;;;;;2.25;1.27;;;17.80;87.50;;;;;;10450604;28;20511;-75
2022/01/04 00:50:22;;;;;;;3.10;1.08;;;17.80;87.60;;;;;;10431890;28;20409;-75
2022/01/04 00:55:24;;;;;;;2.85;1.20;;;17.70;87.60;;;;;;10454987;28;20137;-76
2022/01/04 01:00:25;;;;;;;2.67;1.10;;;17.70;87.70;;;;;;10454367;28;20445;-74
2022/01/04 01:05:27;;;;;;;2.13;1.00;;;17.70;87.80;;;;;;10427921;28;20049;-74
2022/01/04 01:15:45;;;;;;;2.58;1.25;;;17.60;87.80;;;;;;10452586;28;20136;-74
2022/01/04 01:20:47;;;;;;;1.83;1.02;;;17.50;87.80;;;;;;10448025;28;20048;-75
2022/01/04 01:25:48;;;;;;;3.50;1.23;;;17.50;87.90;;;;;;10453701;28;20045;-74
2022/01/04 01:30:50;;;;;;;3.13;1.20;;;17.50;88.00;;;;;;10452443;28;20524;-74
2022/01/04 01:35:51;;;;;;;2.00;0.98;;;17.40;87.90;;;;;;10452650;28;20490;-74
2022/01/04 01:40:52;;;;;;;2.63;1.30;;;17.40;88.00;;;;;;10451777;28;20064;-74
2022/01/04 01:45:55;;;;;;;3.88;1.33;;;17.40;88.00;;;;;;10453019;28;20049;-74
2022/01/04 01:50:57;;;;;;;2.08;0.95;;;17.40;88.00;;;;;;10452515;28;20091;-73
2022/01/04 01:55:58;;;;;;;2.65;1.02;;;17.30;88.60;;;;;;10426753;28;20103;-74
2022/01/04 02:01:00;;;;;;;3.08;1.17;;;17.30;88.10;;;;;;10433405;28;20048;-74
2022/01/04 02:06:01;;;;;;;3.20;1.00;;;17.30;88.10;;;;;;10439966;28;20053;-75
2022/01/04 02:11:03;;;;;;;2.50;1.02;;;17.20;88.10;;;;;;10444946;28;20052;-74
2022/01/04 02:16:04;;;;;;;3.20;1.40;;;17.20;88.10;;;;;;10453100;28;20056;-73
2022/01/04 02:21:06;;;;;;;1.60;0.80;;;17.20;88.70;;;;;;10451807;28;20049;-74
2022/01/04 02:26:07;;;;;;;2.40;1.10;;;17.20;88.20;;;;;;10459922;28;20076;-74
2022/01/04 02:31:09;;;;;;;2.47;0.95;;;17.10;88.20;;;;;;10458716;28;20094;-74
2022/01/04 02:36:10;;;;;;;2.80;1.00;;;17.10;88.20;;;;;;10460111;28;20045;-74
2022/01/04 02:41:12;;;;;;;1.83;0.90;;;17.10;88.30;;;;;;10460199;28;20060;-74
2022/01/04 02:46:13;;;;;;;2.67;1.20;;;17.00;88.30;;;;;;10439729;28;20052;-76
2022/01/04 02:51:16;;;;;;;1.95;0.85;;;17.00;88.30;;;;;;10456894;28;20091;-75
2022/01/04 02:56:18;;;;;;;1.50;0.85;;;17.00;88.30;;;;;;10459567;28;20132;-74
2022/01/04 03:01:19;;;;;;;2.70;1.17;;;17.00;88.40;;;;;;10454751;28;20056;-75
2022/01/04 03:06:21;;;;;;;1.95;1.00;;;16.90;88.30;;;;;;10418457;28;20053;-74
2022/01/04 03:11:22;;;;;;;2.55;1.00;;;16.90;88.30;;;;;;10457743;28;20044;-75
2022/01/04 03:16:24;;;;;;;3.00;1.10;;;16.90;88.40;;;;;;10459233;28;20056;-74
2022/01/04 03:21:25;;;;;;;2.05;0.98;;;16.90;88.40;;;;;;10451251;28;20056;-74
2022/01/04 03:26:27;;;;;;;2.53;1.10;;;16.80;88.40;;;;;;10458300;28;20094;-75
2022/01/04 03:31:28;;;;;;;2.80;0.90;;;16.80;88.50;;;;;;10458095;28;20533;-74
2022/01/04 03:36:29;;;;;;;2.20;0.82;;;16.80;88.50;;;;;;10455629;28;20516;-74
2022/01/04 03:41:31;;;;;;;2.67;0.90;;;16.70;88.50;;;;;;10457064;28;20059;-75
2022/01/04 03:46:32;;;;;;;2.97;0.95;;;16.70;88.50;;;;;;10457773;28;20053;-74
2022/01/04 03:51:34;;;;;;;2.58;1.10;;;16.70;88.60;;;;;;10456096;28;20048;-75
2022/01/04 03:56:35;;;;;;;1.88;0.98;;;16.70;88.60;;;;;;10456055;28;20106;-74
2022/01/04 04:01:37;;;;;;;2.03;1.02;;;16.60;88.50;;;;;;10456495;28;20053;-74
2022/01/04 04:06:38;;;;;;;2.05;1.05;;;16.60;88.50;;;;;;10456916;28;20053;-74
2022/01/04 04:11:40;;;;;;;2.13;0.90;;;16.60;88.50;;;;;;10432395;28;20049;-74
2022/01/04 04:16:41;;;;;;;2.35;0.95;;;16.60;88.50;;;;;;10452135;28;20049;-75
2022/01/04 04:21:43;;;;;;;2.78;0.98;;;16.60;88.60;;;;;;10447327;28;20045;-74
2022/01/04 04:26:44;;;;;;;2.25;0.88;;;16.50;88.50;;;;;;10429931;28;20049;-74
2022/01/04 04:31:46;;;;;;;1.95;0.90;;;16.50;88.60;;;;;;10448090;28;20045;-74
2022/01/04 04:36:47;;;;;;;2.17;1.00;;;16.50;88.60;;;;;;10454791;28;20040;-74
2022/01/04 04:41:49;;;;;;;2.72;0.93;;;16.50;88.60;;;;;;10455126;28;20489;-74
2022/01/04 04:46:51;;;;;;;2.60;0.95;;;16.50;88.70;;;;;;10420790;28;20053;-75
2022/01/04 04:51:54;;;;;;;2.35;0.95;;;16.40;88.70;;;;;;10439747;28;20520;-75
2022/01/04 04:56:56;;;;;;;3.38;1.00;;;16.40;88.70;;;;;;10455343;28;20045;-75
2022/01/04 05:01:57;;;;;;;2.10;1.10;;;16.40;88.70;;;;;;10436036;28;20046;-75
2022/01/04 05:06:59;;;;;;;2.17;0.90;;;16.40;88.70;;;;;;10452325;28;20098;-75
2022/01/04 05:12:01;;;;;;;2.50;1.30;;;16.30;88.70;;;;;;10454524;28;20041;-75
2022/01/04 05:17:03;;;;;;;1.88;0.85;;;16.30;88.70;;;;;;10450091;28;20056;-74
2022/01/04 05:22:04;;;;;;;1.20;0.77;;;16.30;88.70;;;;;;10439040;28;20401;-74
2022/01/04 05:27:06;;;;;;;2.88;0.98;;;16.20;88.70;;;;;;10453658;28;20045;-75
2022/01/04 05:32:07;;;;;;;2.08;0.90;;;16.30;88.70;;;;;;10453191;28;20045;-75
2022/01/04 05:37:09;;;;;;;3.15;1.02;;;16.20;88.70;;;;;;10452694;28;20064;-75
2022/01/04 05:42:10;;;;;;;1.88;0.88;;;16.20;88.80;;;;;;10453258;28;20098;-75
2022/01/04 05:47:12;;;;;;;1.83;1.02;;;16.20;88.80;;;;;;10453076;28;20056;-75
2022/01/04 05:52:13;;;;;;;2.15;0.90;;;16.20;88.80;;;;;;10440289;28;20113;-74
2022/01/04 05:57:15;;;;;;;2.35;0.85;;;16.20;88.80;;;;;;10434020;28;20076;-75
2022/01/04 06:02:16;;;;;;;1.38;0.75;;;16.10;88.80;;;;;;10460969;28;20482;-75
2022/01/04 06:07:17;;;;;;;2.45;0.93;;;16.10;88.80;;;;;;10461081;28;20419;-75
2022/01/04 06:17:41;;;;;;;2.10;1.10;;;16.10;88.80;;;;;;10434355;28;20106;-75
2022/01/04 06:22:43;;;;;;;2.45;1.00;;;16.10;88.90;;;;;;10459996;28;20045;-75
2022/01/04 06:27:44;;;;;;;2.83;1.00;;;16.00;88.80;;;;;;10460245;28;20056;-75
2022/01/04 06:32:46;;;;;;;2.92;1.02;;;16.00;88.80;;;;;;10458647;28;20044;-75
2022/01/04 06:37:47;;;;;;;1.77;0.90;;;16.00;88.90;;;;;;10460493;28;20055;-75
2022/01/04 06:42:48;;;;;;;1.95;1.00;;;16.00;88.90;;;;;;10453490;28;20132;-75
2022/01/04 06:47:50;;;;;;;2.17;1.00;;;16.00;88.90;;;;;;10460060;28;20052;-75
2022/01/04 06:52:51;;;;;;;1.55;0.90;;;16.00;88.90;;;;;;10458652;28;20080;-74
2022/01/04 06:57:53;;;;;;;2.30;0.90;;;15.90;88.90;;;;;;10459014;28;20053;-75
2022/01/04 07:02:54;;;;;;;2.58;1.00;;;15.90;88.90;;;;;;10449120;28;20289;-74
2022/01/04 07:07:56;;;;;;;2.03;1.00;;;15.90;89.00;;;;;;10458527;28;20144;-75
2022/01/04 07:12:57;;;;;;;2.20;0.90;;;15.90;88.90;;;;;;10457632;28;20056;-74
2022/01/04 07:17:59;;;;;;;2.53;1.10;;;15.90;89.00;;;;;;10441532;28;20057;-74
2022/01/04 07:23:00;;;;;;;1.98;0.88;;;15.80;88.90;;;;;;10457755;28;20045;-75
2022/01/04 07:28:02;;;;;;;2.20;0.95;;;15.80;88.90;;;;;;10457040;28;20049;-73
2022/01/04 07:33:03;;;;;;;1.52;0.73;;;15.80;89.00;;;;;;10454368;28;20056;-75
2022/01/04 07:38:05;;;;;;;2.08;0.90;;;15.80;89.00;;;;;;10433478;28;20057;-74
2022/01/04 07:43:06;;;;;;;2.22;0.95;;;15.80;88.90;;;;;;10456133;28;20474;-75
2022/01/04 07:48:10;;;;;;;2.15;0.90;;;15.80;89.00;;;;;;10453306;28;20059;-73
2022/01/04 07:53:12;;;;;;;2.75;1.00;;;15.70;89.00;;;;;;10454268;28;20391;-74
2022/01/04 07:58:13;;;;;;;2.20;0.90;;;15.70;89.00;;;;;;10457236;28;20082;-74
2022/01/04 08:03:15;;;;;;;1.73;0.90;;;15.70;89.00;;;;;;10455709;28;20119;-74
2022/01/04 08:08:16;;;;;;;1.88;0.88;;;15.70;89.00;;;;;;10450322;28;20056;-74
2022/01/04 08:13:18;;;;;;;2.13;0.90;;;15.70;89.00;;;;;;10456249;28;20045;-75
2022/01/04 08:18:19;;;;;;;2.33;1.00;;;15.70;89.10;;;;;;10455140;28;20048;-75
2022/01/04 08:23:21;;;;;;;2.63;0.90;;;15.70;89.10;;;;;;10453802;28;20044;-74
2022/01/04 08:28:22;;;;;;;1.92;1.00;;;15.60;89.00;;;;;;10441072;28;20574;-74
2022/01/04 08:33:24;;;;;;;2.80;1.15;;;15.60;89.10;;;;;;10441380;28;20049;-74
2022/01/04 08:38:25;;;;;;;3.13;1.00;;;15.60;89.90;;;;;;10446064;28;20045;-75
2022/01/04 08:43:27;;;;;;;1.75;0.70;;;15.80;90.10;;;;;;10450088;28;20393;-74
2022/01/04 08:48:29;;;;;;;1.38;0.68;;;16.30;90.00;;;;;;10430337;28;20072;-75
2022/01/04 08:53:30;;;;;;;2.90;0.80;;;16.90;89.60;;;;;;10443451;28;20044;-77
2022/01/04 08:58:32;;;;;;;1.42;0.65;;;17.60;88.50;;;;;;10448671;28;20053;-74
2022/01/04 09:03:33;;;;;;;1.98;0.70;;;18.30;87.50;;;;;;10446162;28;20048;-76
2022/01/04 09:08:36;;;;;;;2.10;0.80;;;18.80;86.80;;;;;;10447289;28;20045;-76
2022/01/04 09:13:41;;;;;;;1.80;0.57;;;19.20;85.90;;;;;;10447632;28;20045;-75
2022/01/04 09:18:46;;;;;;;1.48;0.45;;;19.50;85.40;;;;;;10447226;28;20080;-76
2022/01/04 09:23:47;;;;;;;1.07;0.50;;;19.80;85.00;;;;;;10440313;28;20049;-75
2022/01/04 09:28:49;;;;;;;1.25;0.60;;;20.00;84.60;;;;;;10438709;28;20053;-75
2022/01/04 09:33:50;;;;;;;1.27;0.50;;;20.10;84.30;;;;;;10447780;28;20055;-75
2022/01/04 09:38:52;;;;;;;1.30;0.57;;;20.20;84.00;;;;;;10438676;28;20053;-76
2022/01/04 09:43:54;;;;;;;1.48;0.60;;;20.30;83.90;;;;;;10445805;28;20056;-77
2022/01/04 09:48:56;;;;;;;1.50;0.50;;;20.30;83.60;;;;;;10445415;28;20095;-77
2022/01/04 09:53:57;;;;;;;1.75;0.40;;;20.40;83.60;;;;;;10440304;28;20064;-77
2022/01/04 09:58:59;;;;;;;1.25;0.60;;;20.40;83.50;;;;;;10441185;28;20053;-76
2022/01/04 10:04:00;;;;;;;1.17;0.60;;;20.40;83.40;;;;;;10407022;28;20050;-75
2022/01/04 10:09:03;;;;;;;0.80;0.40;;;20.40;83.30;;;;;;10427390;28;20045;-75
2022/01/04 10:14:05;;;;;;;1.13;0.50;;;20.40;83.30;;;;;;10429703;28;20037;-77
2022/01/04 10:19:06;;;;;;;1.27;0.52;;;20.40;83.20;;;;;;10427601;28;20049;-77
2022/01/04 10:24:07;;;;;;;1.05;0.45;;;20.50;83.20;;;;;;10412972;28;20545;-76
2022/01/04 10:29:09;;;;;;;0.73;0.45;;;20.50;83.00;;;;;;10446384;28;20092;-76
2022/01/04 10:34:11;;;;;;;1.45;0.60;;;20.60;82.90;;;;;;10444444;28;20099;-76
2022/01/04 10:39:12;;;;;;;1.48;0.60;;;20.60;82.80;;;;;;10451060;28;20052;-77
2022/01/04 10:44:14;;;;;;;1.83;0.77;;;20.60;82.70;;;;;;10454403;28;20052;-77
2022/01/04 10:49:15;;;;;;;0.90;0.80;;;20.60;82.60;;;;;;10446049;28;20047;-77
2022/01/04 10:54:17;;;;;;;1.58;0.90;;;20.60;82.50;;;;;;10458057;28;20053;-76
2022/01/04 10:59:18;;;;;;;1.48;0.93;;;20.60;82.40;;;;;;10458630;28;20057;-77
2022/01/04 11:04:20;;;;;;;1.25;0.88;;;20.60;82.40;;;;;;10451627;28;20493;-77
2022/01/04 11:09:22;;;;;;;1.65;0.90;;;20.60;82.20;;;;;;10458279;28;20045;-77
2022/01/04 11:14:23;;;;;;;0.98;0.80;;;20.60;82.00;;;;;;10457523;28;20055;-77
2022/01/04 11:19:25;;;;;;;1.67;0.90;;;20.60;82.00;;;;;;10421292;28;20060;-77
2022/01/04 11:24:26;;;;;;;1.15;0.70;;;20.60;82.50;;;;;;10456182;28;20045;-77
2022/01/04 11:29:28;;;;;;;1.08;0.80;;;20.60;81.80;;;;;;10456631;28;20050;-77
2022/01/04 11:34:29;;;;;;;1.15;0.90;;;20.60;81.80;;;;;;10456848;28;20045;-77
2022/01/04 11:39:31;;;;;;;1.10;0.80;;;20.60;81.70;;;;;;10433944;28;20045;-77
2022/01/04 11:44:32;;;;;;;1.13;0.73;;;20.60;81.60;;;;;;10438406;28;20076;-76
2022/01/04 11:49:36;;;;;;;0.88;0.77;;;20.60;81.60;;;;;;10447049;28;20056;-77
2022/01/04 11:54:37;;;;;;;2.22;0.88;;;20.60;81.50;;;;;;10448250;28;20061;-75
2022/01/04 11:59:39;;;;;;;1.75;0.70;;;20.60;81.50;;;;;;10447531;28;20110;-75
2022/01/04 12:04:40;;;;;;;1.30;0.75;;;20.50;81.50;;;;;;10439862;28;20616;-75
2022/01/04 12:09:42;;;;;;;1.88;0.80;;;20.60;81.50;;;;;;10430027;28;20542;-77
2022/01/04 12:14:43;;;;;;;0.95;0.65;;;20.60;81.40;;;;;;10413035;28;20048;-76
2022/01/04 12:19:45;;;;;;;0.60;0.50;;;20.60;81.50;;;;;;10421184;28;20227;-76
2022/01/04 12:24:47;;;;;;;0.70;0.65;;;20.50;81.30;;;;;;10450243;28;20045;-76
2022/01/04 12:29:48;;;;;;;1.52;0.63;;;20.60;81.30;;;;;;10439464;28;20386;-76
2022/01/04 12:34:50;;;;;;;1.13;0.80;;;20.60;81.30;;;;;;10448947;28;20418;-78
2022/01/04 12:39:51;;;;;;;0.80;0.50;;;20.60;81.30;;;;;;10436609;28;20098;-76
2022/01/04 12:44:53;;;;;;;0.73;0.40;;;20.60;81.20;;;;;;10423400;28;20044;-77
2022/01/04 12:49:54;;;;;;;0.63;0.60;;;20.60;81.20;;;;;;10446012;28;20049;-76
2022/01/04 12:54:56;;;;;;;0.80;0.52;;;20.60;81.10;;;;;;10444857;28;20060;-78
2022/01/04 12:59:57;;;;;;;1.00;0.43;;;20.60;81.10;;;;;;10448402;28;20053;-78
2022/01/04 13:04:59;;;;;;;1.15;0.60;;;20.60;81.20;;;;;;10440886;28;20821;-77
2022/01/04 13:10:00;;;;;;;1.33;0.70;;;20.60;81.10;;;;;;10438590;28;20041;-77
2022/01/04 13:15:02;;;;;;;1.10;0.50;;;20.60;81.10;;;;;;10447347;28;20052;-78
2022/01/04 13:20:03;;;;;;;0.60;0.32;;;20.60;81.10;;;;;;10441947;28;20516;-78
2022/01/04 13:25:05;;;;;;;1.15;0.50;;;20.60;81.10;;;;;;10448626;28;20534;-78
2022/01/04 13:30:06;;;;;;;0.85;0.43;;;20.60;81.10;;;;;;10448082;28;20060;-75
2022/01/04 13:35:08;;;;;;;1.40;0.47;;;20.60;81.10;;;;;;10446335;28;20055;-74
2022/01/04 13:40:09;;;;;;;0.43;0.20;;;20.60;81.00;;;;;;10440225;28;20052;-76
2022/01/04 13:45:11;;;;;;;1.05;0.32;;;20.60;81.00;;;;;;10443248;28;20056;-76
2022/01/04 13:50:13;;;;;;;1.02;0.43;;;20.50;81.00;;;;;;10447103;28;20417;-77
2022/01/04 13:55:14;;;;;;;0.82;0.40;;;20.60;81.00;;;;;;10432585;28;20044;-78
2022/01/04 14:00:15;;;;;;;1.17;0.47;;;20.50;80.90;;;;;;10446807;28;20052;-82
2022/01/04 14:05:17;;;;;;;0.70;0.38;;;20.50;80.80;;;;;;10445327;28;20472;-77
2022/01/04 14:10:19;;;;;;;1.02;0.50;;;20.50;80.80;;;;;;10433606;28;20037;-81
2022/01/04 14:15:20;;;;;;;0.70;0.40;;;20.50;80.80;;;;;;10436351;28;20056;-82
2022/01/04 14:20:22;;;;;;;1.48;0.50;;;20.50;80.80;;;;;;10435413;28;20095;-80
2022/01/04 14:25:23;;;;;;;1.27;0.40;;;20.50;80.80;;;;;;10421077;28;20046;-80
2022/01/04 14:30:26;;;;;;;1.02;0.50;;;20.50;80.80;;;;;;10418510;28;20053;-77
2022/01/04 14:35:27;;;;;;;1.20;0.35;;;20.60;80.90;;;;;;10417193;28;20053;-79
2022/01/04 14:40:29;;;;;;;1.17;0.40;;;20.50;80.80;;;;;;10450976;28;20053;-80
2022/01/04 14:45:30;;;;;;;1.10;0.50;;;20.50;80.90;;;;;;10430024;28;20053;-82
2022/01/04 14:50:32;;;;;;;1.55;0.50;;;20.50;80.80;;;;;;10442104;28;20048;-80
2022/01/04 14:55:33;;;;;;;0.95;0.40;;;20.50;80.80;;;;;;10422133;28;20384;-79
2022/01/04 15:00:35;;;;;;;1.70;0.43;;;20.50;80.80;;;;;;10442117;28;20510;-78
2022/01/04 15:05:37;;;;;;;0.85;0.30;;;20.50;80.70;;;;;;10451878;28;20053;-80
2022/01/04 15:10:38;;;;;;;0.75;0.40;;;20.50;80.80;;;;;;10439058;28;20045;-82
2022/01/04 15:15:40;;;;;;;1.15;0.50;;;20.50;80.70;;;;;;10448646;28;20041;-79
2022/01/04 15:20:41;;;;;;;0.90;0.30;;;20.50;80.70;;;;;;10452721;28;20049;-80
2022/01/04 15:25:42;;;;;;;1.75;0.40;;;20.50;80.70;;;;;;10456952;28;20053;-81
2022/01/04 15:30:44;;;;;;;0.90;0.45;;;20.50;80.70;;;;;;10456795;28;20045;-81
2022/01/04 15:35:45;;;;;;;1.80;0.70;;;20.40;80.60;;;;;;10441813;28;20049;-80
2022/01/04 15:40:47;;;;;;;1.77;0.60;;;20.40;80.60;;;;;;10415444;28;20068;-80
2022/01/04 15:45:48;;;;;;;0.75;0.38;;;20.40;80.40;;;;;;10418719;28;20057;-80
2022/01/04 15:50:50;;;;;;;1.48;0.50;;;20.40;80.40;;;;;;10440868;28;20091;-80
2022/01/04 15:55:51;;;;;;;1.15;0.40;;;20.40;80.40;;;;;;10455367;28;20048;-80
2022/01/04 16:00:53;;;;;;;1.02;0.38;;;20.40;80.30;;;;;;10446959;28;20049;-80
2022/01/04 16:05:54;;;;;;;1.42;0.40;;;20.40;80.20;;;;;;10410483;28;20056;-80
2022/01/04 16:10:56;;;;;;;1.25;0.32;;;20.40;80.10;;;;;;10435217;28;20048;-80
2022/01/04 16:16:02;;;;;;;1.05;0.40;;;20.40;80.00;;;;;;10420161;28;20049;-80
2022/01/04 16:26:23;;;;;;;1.52;0.50;;;20.40;79.80;;;;;;10452100;28;20469;-80
2022/01/04 16:31:24;;;;;;;1.83;0.40;;;20.40;79.80;;;;;;10452178;28;20490;-80
2022/01/04 16:36:26;;;;;;;1.48;0.40;;;20.40;79.70;;;;;;10452835;28;20587;-80
2022/01/04 16:41:28;;;;;;;1.52;0.40;;;20.40;79.70;;;;;;10428171;28;20570;-80
2022/01/04 16:46:29;;;;;;;1.25;0.43;;;20.40;79.60;;;;;;10413474;28;20049;-80
2022/01/04 16:51:31;;;;;;;1.10;0.50;;;20.40;79.60;;;;;;10431244;28;20402;-80
2022/01/04 16:56:32;;;;;;;0.82;0.40;;;20.40;79.50;;;;;;10452008;28;20502;-79
2022/01/04 17:01:34;;;;;;;1.38;0.50;;;20.40;79.50;;;;;;10446043;28;20388;-80
2022/01/04 17:06:35;;;;;;;0.88;0.45;;;20.40;79.50;;;;;;10367442;28;1265184;-79
2022/01/04 17:11:47;;;;;;;1.13;0.43;;;20.40;79.40;;;;;;10452733;28;20045;-80
2022/01/04 17:16:49;;;;;;;1.58;0.55;;;20.40;79.30;;;;;;10446094;28;20049;-80
2022/01/04 17:21:50;;;;;;;1.52;0.63;;;20.40;79.30;;;;;;10427883;28;20071;-80
2022/01/04 17:26:52;;;;;;;1.20;0.70;;;20.40;79.40;;;;;;10411859;28;20049;-81
2022/01/04 17:31:55;;;;;;;1.40;0.60;;;20.40;79.30;;;;;;10409774;28;20169;-80
2022/01/04 17:36:56;;;;;;;1.10;0.43;;;20.40;79.30;;;;;;10426139;28;20048;-80
2022/01/04 17:41:58;;;;;;;0.77;0.40;;;20.40;79.30;;;;;;10419167;28;20505;-81
2022/01/04 17:46:59;;;;;;;0.95;0.43;;;20.40;79.20;;;;;;10411223;28;20513;-80
2022/01/04 17:52:01;;;;;;;1.40;0.50;;;20.40;79.20;;;;;;10412426;28;20042;-79
2022/01/04 17:57:02;;;;;;;1.02;0.43;;;20.40;79.10;;;;;;10410899;28;20056;-80
2022/01/04 18:02:04;;;;;;;1.30;0.60;;;20.40;79.10;;;;;;10410770;28;20111;-80
2022/01/04 18:07:07;;;;;;;1.17;0.57;;;20.40;79.00;;;;;;10412128;28;20546;-81
2022/01/04 18:12:08;;;;;;;1.17;0.60;;;20.40;79.00;;;;;;10410257;28;20521;-80
2022/01/04 18:17:10;;;;;;;1.15;0.63;;;20.40;78.90;;;;;;10414629;28;20045;-80
2022/01/04 18:22:11;;;;;;;1.85;0.55;;;20.40;78.90;;;;;;10410961;28;20060;-81
2022/01/04 18:27:13;;;;;;;1.45;0.70;;;20.40;78.80;;;;;;10450941;28;20052;-80
2022/01/04 18:32:14;;;;;;;1.92;0.70;;;20.40;78.70;;;;;;10451301;28;20471;-78
2022/01/04 18:37:16;;;;;;;1.73;0.80;;;20.40;78.90;;;;;;10445121;28;20402;-80
2022/01/04 18:42:17;;;;;;;1.20;0.57;;;20.40;79.00;;;;;;10414360;28;20414;-81
2022/01/04 18:47:19;;;;;;;2.45;0.82;;;20.40;79.10;;;;;;10411942;28;20399;-80
2022/01/04 18:52:21;;;;;;;1.45;0.65;;;20.40;79.20;;;;;;10438442;28;20094;-81
2022/01/04 18:57:22;;;;;;;2.17;0.70;;;20.40;79.20;;;;;;10450857;28;20045;-80
2022/01/04 19:02:24;;;;;;;3.88;0.98;;;20.40;79.20;;;;;;10424342;28;20041;-80
2022/01/04 19:07:25;;;;;;;2.70;0.95;;;20.40;79.30;;;;;;10424955;28;20048;-80
2022/01/04 19:12:28;;;;;;;2.13;0.80;;;20.40;79.30;;;;;;10427769;28;20404;-80
2022/01/04 19:17:29;;;;;;;1.35;0.70;;;20.40;79.30;;;;;;10423894;28;20417;-80
2022/01/04 19:22:32;;;;;;;1.15;0.50;;;20.40;79.30;;;;;;10424055;28;21846;-80
2022/01/04 19:27:33;;;;;;;2.78;0.77;;;20.40;79.30;;;;;;10447159;28;20045;-82
2022/01/04 19:33:07;;;;;;;3.17;0.70;;;20.40;79.40;;;;;;10447226;28;20449;-81
2022/01/04 19:38:07;;;;;;;1.95;0.80;;;20.40;79.30;;;;;;10428535;28;20046;-82
2022/01/04 19:43:10;;;;;;;1.27;0.47;;;20.40;79.30;;;;;;10415465;28;20462;-82
2022/01/04 19:48:12;;;;;;;1.80;0.60;;;20.40;79.20;;;;;;10448098;28;20106;-82
2022/01/04 19:53:13;;;;;;;3.58;0.88;;;20.50;79.30;;;;;;10425564;28;20049;-84
2022/01/04 19:58:15;;;;;;;2.25;0.80;;;20.50;79.20;;;;;;10450204;28;20472;-83
2022/01/04 20:03:16;;;;;;;2.65;0.90;;;20.50;79.20;;;;;;10446996;28;20060;-83
2022/01/04 20:08:18;;;;;;;1.70;0.75;;;20.50;79.20;;;;;;10418281;28;20062;-83
2022/01/04 20:13:20;;;;;;;1.80;0.73;;;20.50;79.20;;;;;;10438176;28;20056;-83
2022/01/04 20:18:21;;;;;;;1.45;0.60;;;20.50;79.20;;;;;;10448359;28;20056;-83
2022/01/04 20:23:23;;;;;;;1.70;0.60;;;20.50;79.10;;;;;;10416567;28;20056;-81
2022/01/04 20:28:25;;;;;;;1.35;0.60;;;20.50;79.00;;;;;;10434017;28;20041;-81
2022/01/04 20:33:27;;;;;;;2.10;0.80;;;20.50;79.10;;;;;;10449880;28;20111;-82
2022/01/04 20:38:28;;;;;;;1.13;0.68;;;20.50;79.00;;;;;;10443142;28;20045;-81
2022/01/04 20:43:30;;;;;;;2.78;0.70;;;20.50;79.10;;;;;;10441799;28;20056;-82
2022/01/04 20:48:31;;;;;;;2.08;0.70;;;20.50;79.00;;;;;;10449253;28;20041;-82
2022/01/04 20:53:33;;;;;;;1.80;0.77;;;20.50;78.90;;;;;;10448036;28;20056;-83
2022/01/04 20:58:34;;;;;;;1.77;0.70;;;20.50;79.00;;;;;;10443106;28;20045;-82
2022/01/04 21:03:36;;;;;;;2.63;0.98;;;20.40;78.80;;;;;;10424479;28;20045;-83
2022/01/04 21:08:37;;;;;;;1.13;0.80;;;20.40;78.80;;;;;;10447774;28;20053;-82
2022/01/04 21:13:39;;;;;;;1.85;0.80;;;20.40;78.80;;;;;;10445719;28;20041;-82
2022/01/04 21:18:40;;;;;;;1.60;0.80;;;20.40;78.80;;;;;;10435692;28;20506;-82
2022/01/04 21:23:43;;;;;;;1.88;0.70;;;20.40;78.80;;;;;;10438440;28;20049;-81
2022/01/04 21:28:45;;;;;;;2.13;0.70;;;20.40;78.60;;;;;;10447391;28;20087;-81
2022/01/04 21:33:46;;;;;;;2.45;0.85;;;20.40;78.70;;;;;;10433964;28;20501;-81
2022/01/04 21:38:49;;;;;;;1.58;0.73;;;20.40;78.60;;;;;;10446145;28;20049;-82
2022/01/04 21:43:51;;;;;;;2.10;0.75;;;20.40;78.60;;;;;;10447563;28;20442;-81
2022/01/04 21:48:53;;;;;;;1.42;0.60;;;20.40;78.50;;;;;;10438440;28;20046;-82
2022/01/04 21:53:54;;;;;;;1.88;0.70;;;20.40;78.50;;;;;;10442540;28;20053;-82
2022/01/04 21:58:56;;;;;;;1.50;0.63;;;20.40;78.40;;;;;;10420250;28;20980;-78
2022/01/04 22:03:57;;;;;;;2.58;0.85;;;20.40;78.40;;;;;;10435046;28;20063;-80
2022/01/04 22:08:59;;;;;;;2.40;0.65;;;20.40;78.50;;;;;;10450595;28;20076;-80
2022/01/04 22:14:00;;;;;;;1.60;0.70;;;20.30;78.80;;;;;;10448871;28;20391;-81
2022/01/04 22:19:02;;;;;;;1.80;0.70;;;20.10;79.10;;;;;;10449190;28;20410;-80
2022/01/04 22:24:03;;;;;;;1.55;0.90;;;20.00;79.40;;;;;;10452805;28;20103;-79
2022/01/04 22:29:05;;;;;;;1.98;0.90;;;19.80;79.60;;;;;;10452841;28;20044;-80
2022/01/04 22:34:06;;;;;;;1.73;0.90;;;19.70;79.90;;;;;;10444526;28;20052;-79
2022/01/04 22:39:08;;;;;;;1.38;0.68;;;19.50;80.10;;;;;;10453799;28;20512;-80
2022/01/04 22:44:10;;;;;;;2.00;0.90;;;19.40;80.20;;;;;;10433084;28;20132;-80
2022/01/04 22:49:12;;;;;;;1.63;0.80;;;19.30;80.40;;;;;;10456217;28;20071;-79
2022/01/04 22:54:14;;;;;;;1.67;0.75;;;19.10;80.60;;;;;;10436856;28;20045;-80
2022/01/04 22:59:16;;;;;;;1.77;0.70;;;19.00;80.80;;;;;;10445330;28;20080;-80
2022/01/04 23:04:18;;;;;;;2.30;1.10;;;19.00;81.00;;;;;;10458292;28;20049;-79
2022/01/04 23:09:19;;;;;;;1.75;0.90;;;18.80;81.00;;;;;;10458955;28;20502;-78
2022/01/04 23:14:21;;;;;;;2.65;0.93;;;18.70;81.20;;;;;;10458743;28;20052;-79
2022/01/04 23:19:22;;;;;;;2.25;0.80;;;18.60;81.30;;;;;;10448220;28;20068;-79
2022/01/04 23:24:24;;;;;;;2.42;0.93;;;18.60;81.50;;;;;;10433726;28;20052;-80
2022/01/04 23:29:25;;;;;;;2.20;1.00;;;18.50;81.60;;;;;;10450717;28;20896;-79
2022/01/04 23:34:27;;;;;;;1.80;0.80;;;18.40;81.70;;;;;;10457859;28;20049;-79
2022/01/04 23:39:28;;;;;;;2.47;0.90;;;18.40;81.90;;;;;;10458466;28;20544;-79
2022/01/04 23:44:30;;;;;;;1.70;0.77;;;18.30;82.00;;;;;;10457645;28;20045;-79
2022/01/04 23:49:31;;;;;;;2.10;0.80;;;18.20;82.10;;;;;;10456867;28;20052;-80
2022/01/04 23:54:33;;;;;;;2.35;0.90;;;18.10;82.20;;;;;;10457577;28;20044;-80
2022/01/04 23:59:34;;;;;;;1.77;0.90;;;18.10;82.30;;;;;;10456557;28;20049;-79
